Date,TemperatureHighF,TemperatureAvgF,TemperatureLowF,DewpointHighF,DewpointAvgF,DewpointLowF,HumidityHigh,HumidityAvg,HumidityLow,PressureMaxIn,PressureMinIn,WindSpeedMaxMPH,WindSpeedAvgMPH,GustSpeedMaxMPH,PrecipitationSumIn
2013-1-1,68.5,55.5,46.9,67.9,53.2,42.9,98,92,85,30.18,29.88,10,7,11,0.06
2013-1-2,46.6,43.1,41.4,42.6,39.0,36.4,88,85,82,30.28,30.16,9,6,12,0.01
2013-1-3,53.7,45.9,38.7,38.8,36.2,34.4,85,70,48,30.39,30.26,8,6,12,0.00
2013-1-4,49.1,47.0,44.7,39.4,38.2,36.7,79,72,63,30.47,30.33,7,4,8,0.00
2013-1-5,46.3,44.7,42.7,44.7,42.7,38.8,96,93,75,30.36,30.23,10,4,10,0.67
2013-1-6,57.6,48.8,42.2,46.4,43.7,41.1,98,83,65,30.33,30.22,8,5,8,0.00
2013-1-7,56.0,49.0,40.8,47.1,43.5,38.4,91,82,71,30.29,30.07,7,3,10,0.00
2013-1-8,63.7,58.4,52.0,62.8,56.3,46.3,97,93,77,30.08,29.88,11,4,11,0.30
2013-1-9,66.0,62.7,58.3,64.8,61.7,57.6,99,97,94,30.03,29.81,11,5,12,1.75
2013-1-10,70.1,62.2,55.7,61.9,57.2,50.9,97,85,51,30.07,29.93,8,4,12,0.04
2013-1-11,68.3,59.9,51.5,64.1,54.4,47.3,99,83,60,30.04,29.88,6,3,7,0.00
2013-1-12,73.7,71.3,65.8,71.3,69.7,65.5,99,95,89,29.88,29.69,10,6,14,0.07
2013-1-13,71.8,49.9,42.0,69.9,46.5,39.7,96,88,78,30.10,29.76,12,8,16,0.21
2013-1-14,45.8,43.5,40.7,41.8,39.9,38.0,92,87,83,30.19,30.05,9,6,13,0.02
2013-1-15,42.8,38.8,35.9,39.2,36.4,33.8,95,91,86,30.13,30.01,9,6,11,0.01
2013-1-16,51.7,42.6,35.8,34.2,29.9,22.9,92,64,33,30.26,30.12,10,6,14,0.00
2013-1-17,61.9,49.0,35.2,39.3,32.3,25.8,77,55,30,30.44,30.25,7,3,7,0.00
2013-1-18,59.7,49.8,41.4,43.6,40.2,37.5,87,71,51,30.51,30.36,5,2,7,0.00
2013-1-19,61.3,52.7,44.7,53.0,49.0,43.1,95,88,71,30.35,30.18,6,2,9,0.00
2013-1-20,68.2,56.0,45.4,57.6,51.1,44.6,98,85,58,30.26,30.12,5,2,5,0.01
2013-1-21,68.6,58.5,48.5,56.6,51.1,46.9,96,78,52,30.22,30.12,3,1,6,0.00
2013-1-22,68.7,55.7,48.9,54.4,50.1,46.5,94,82,59,30.32,30.19,5,2,6,0.00
2013-1-23,72.1,61.3,49.3,62.2,57.2,48.8,99,87,68,30.33,30.22,8,3,9,0.01
2013-1-24,76.9,66.1,60.3,66.0,62.7,59.4,98,89,65,30.28,30.13,9,5,9,0.00
2013-1-25,79.2,67.9,61.6,65.1,62.7,60.7,97,85,56,30.18,30.05,9,5,12,0.00
2013-1-26,73.6,66.4,60.9,67.1,63.1,59.8,98,90,74,30.18,30.09,7,2,10,0.00
2013-1-27,72.3,67.2,62.4,67.3,64.3,60.4,96,91,83,30.13,30.03,7,4,13,0.00
2013-1-28,78.2,71.3,68.2,68.2,66.6,65.1,96,86,65,30.10,29.97,10,7,13,0.00
2013-1-29,73.6,71.4,69.5,70.5,69.0,68.0,95,92,88,29.95,29.68,11,8,16,0.00